Brescia / Montichiari Airport LIPO

Flugplatz Daten

Name: Brescia / Montichiari Airport

Ident: LIPO

Lat: 45,42890167

Long: 10,33059978

Platzhöhe: 355 ft

IataCode: VBS

City: Brescia

Metar

2022/08/13 18:20
LIPO 131820Z AUTO 21004KT 9999 NCD 27/11 Q1012

Taf

2022/08/13 18:21
TAF LIPO 131700Z 1318/1418 VRB05KT CAVOK
Gewünschte Webcam nicht vorhanden? Dann fügen Sie eine hinzu. Sie wird dann so schnell wie möglich freigeschaltet
Url: Title: